This is the latest recevied weather packets stored in our database for station/object OH2TH. If no packets are shown the sender has not sent any weather packets the latest 10 day(s).
| Time | Temp. | Humidity | Pressure | Rain* | Wind** | Luminosity | Snow |
|---|---|---|---|---|---|---|---|
| 1778004001 | 7.78° C | 43% | 100 hPa | 22.61 mm | - | - | - |
| 1778003101 | 8.33° C | 43% | 100 hPa | 22.61 mm | - | - | - |
| 1778002200 | 8.33° C | 41% | 100 hPa | 22.61 mm | - | - | - |
| 1778001305 | 8.33° C | 39% | 100 hPa | 22.61 mm | - | - | - |
| 1778000405 | 9.44° C | 38% | 100 hPa | 22.61 mm | - | - | - |
| 1777999505 | 9.44° C | 37% | 100 hPa | 22.61 mm | - | - | - |
| 1777998604 | 9.44° C | 37% | 100 hPa | 22.61 mm | - | - | - |
| 1777997704 | 10.56° C | 36% | 100 hPa | 22.61 mm | - | - | - |
| 1777996804 | 10.56° C | 36% | 100 hPa | 22.61 mm | - | - | - |
| 1777995904 | 11.67° C | 29% | 100 hPa | 29.72 mm | - | - | - |
| 1777995004 | 11.67° C | 28% | 100 hPa | 29.72 mm | - | - | - |
| 1777994104 | 11.67° C | 33% | 100 hPa | 29.72 mm | - | - | - |
| 1777993203 | 11.67° C | 34% | 100 hPa | 29.72 mm | - | - | - |
| 1777992304 | 12.78° C | 29% | 100 hPa | 29.72 mm | - | - | - |
| 1777991403 | 12.78° C | 30% | 100 hPa | 29.72 mm | - | - | - |
| 1777990503 | 13.33° C | 29% | 100 hPa | 29.72 mm | - | - | - |
| 1777989603 | 12.78° C | 29% | 100 hPa | 29.72 mm | - | - | - |
| 1777988703 | 12.78° C | 31% | 100 hPa | 29.72 mm | - | - | - |
| 1777987803 | 13.33° C | 30% | 100 hPa | 29.72 mm | - | - | - |
| 1777986903 | 12.78° C | 34% | 100 hPa | 29.72 mm | - | - | - |
| 1777986003 | 12.78° C | 37% | 100 hPa | 29.72 mm | - | - | - |
| 1777985102 | 13.33° C | 36% | 100 hPa | 29.72 mm | - | - | - |
| 1777984202 | 13.33° C | 36% | 100 hPa | 29.72 mm | - | - | - |
| 1777983302 | 13.33° C | 40% | 100 hPa | 29.72 mm | - | - | - |
| 1777982402 | 13.33° C | 40% | 100 hPa | 29.72 mm | - | - | - |
* Rain latest 24 hours (hover to see other rain measurements)
** Current wind speed in m/s (hover to see current wind gust speed)